Time;durP1;ratioP1;P1;durP2;ratioP2;P2;SDS_P1;SDS_P2;PMS_P1;PMS_P2;Temp;Humidity;BMP_temperature;BMP_pressure;BME280_temperature;BME280_humidity;BME280_pressure;Samples;Min_cycle;Max_cycle;Signal;HPM_P1;HPM_P2
2022/07/05 00:02:50;;;;;;;5.80;2.80;;;;;;;26.12;45.25;98978.13;232362;1213;138622;-56
2022/07/05 00:07:53;;;;;;;5.00;3.20;;;;;;;26.09;44.80;98968.85;232736;1220;138566;-55
2022/07/05 00:12:56;;;;;;;5.70;2.70;;;;;;;26.14;44.67;98973.14;232932;1220;138886;-54
2022/07/05 00:17:59;;;;;;;5.10;2.60;;;;;;;26.13;44.62;98971.41;230322;1211;138377;-54
2022/07/05 00:23:02;;;;;;;3.20;2.40;;;;;;;26.13;44.62;98974.23;233047;1219;139663;-56
2022/07/05 00:28:05;;;;;;;3.40;2.20;;;;;;;26.06;44.28;98965.26;233120;1221;138819;-56
2022/07/05 00:33:08;;;;;;;5.10;2.50;;;;;;;26.06;44.01;98966.43;232977;1220;139179;-56
2022/07/05 00:38:12;;;;;;;3.50;2.30;;;;;;;26.03;43.81;98974.04;233025;1221;138723;-57
2022/07/05 00:43:14;;;;;;;3.30;2.50;;;;;;;26.02;43.84;98974.91;233160;1220;137961;-58
2022/07/05 00:48:17;;;;;;;6.90;2.50;;;;;;;25.98;43.80;98986.08;232945;1220;139625;-58
2022/07/05 00:53:20;;;;;;;4.60;2.30;;;;;;;25.93;43.88;98988.64;233155;1221;140347;-58
2022/07/05 00:58:24;;;;;;;3.40;2.40;;;;;;;25.85;43.81;98999.43;233234;1220;138475;-59
2022/07/05 01:03:27;;;;;;;4.90;2.60;;;;;;;25.80;44.01;99005.02;233255;1220;138338;-57
2022/07/05 01:08:34;;;;;;;3.60;2.70;;;;;;;25.78;43.99;99018.16;233240;1220;139033;-55
2022/07/05 01:13:38;;;;;;;6.20;2.90;;;;;;;25.73;44.46;99015.77;232301;1220;139198;-56
2022/07/05 01:18:41;;;;;;;7.20;2.80;;;;;;;25.70;44.62;99009.98;233211;1220;138650;-56
2022/07/05 01:23:44;;;;;;;3.60;2.90;;;;;;;25.62;44.97;99004.58;233245;1220;139442;-54
2022/07/05 01:28:47;;;;;;;5.30;3.00;;;;;;;25.59;45.22;99002.14;233111;1221;139926;-57
2022/07/05 01:33:50;;;;;;;5.10;3.10;;;;;;;25.55;45.44;99002.13;233075;1221;139352;-56
2022/07/05 01:38:54;;;;;;;3.20;2.90;;;;;;;25.51;45.39;98994.77;233171;1221;138464;-57
2022/07/05 01:43:57;;;;;;;6.90;3.20;;;;;;;25.49;45.50;98985.52;233120;1221;138989;-56
2022/07/05 01:49:04;;;;;;;3.50;3.10;;;;;;;25.51;45.70;98990.64;233190;1220;139286;-57
2022/07/05 01:54:07;;;;;;;4.40;3.20;;;;;;;25.48;45.55;98988.35;233300;1219;138561;-57
2022/07/05 01:59:11;;;;;;;5.10;2.90;;;;;;;25.38;45.73;98981.23;232858;1223;138921;-58
2022/07/05 02:04:16;;;;;;;4.60;3.20;;;;;;;25.34;46.06;98989.98;233143;1221;139148;-56
2022/07/05 02:09:19;;;;;;;3.70;3.10;;;;;;;25.32;46.31;98993.05;233054;1221;138775;-56
2022/07/05 02:14:23;;;;;;;6.30;3.30;;;;;;;25.25;46.40;98988.53;233174;1220;139335;-57
2022/07/05 02:19:26;;;;;;;4.20;3.80;;;;;;;25.19;46.71;98997.89;233004;1221;139484;-57
2022/07/05 02:24:31;;;;;;;4.10;2.80;;;;;;;25.15;47.00;98997.00;233265;1221;138648;-55
2022/07/05 02:29:46;;;;;;;3.50;3.00;;;;;;;25.09;47.30;99000.75;233248;1220;139367;-56
2022/07/05 02:34:49;;;;;;;8.20;3.60;;;;;;;25.05;47.50;98999.90;233133;1220;139199;-57
2022/07/05 02:39:54;;;;;;;4.00;2.90;;;;;;;25.06;47.71;99002.01;233119;1222;139727;-56
2022/07/05 02:44:57;;;;;;;3.60;2.90;;;;;;;25.02;47.75;99008.08;232959;1222;138588;-56
2022/07/05 02:50:09;;;;;;;5.30;3.20;;;;;;;24.99;47.97;99014.81;233213;1221;138707;-55
2022/07/05 02:55:16;;;;;;;6.60;3.10;;;;;;;24.95;48.11;99017.11;233200;1220;139606;-55
2022/07/05 03:00:19;;;;;;;4.80;3.10;;;;;;;24.96;48.24;99024.95;232658;1221;139208;-57
2022/07/05 03:05:23;;;;;;;7.10;3.50;;;;;;;24.92;48.32;99024.05;233040;1223;138801;-56
2022/07/05 03:10:33;;;;;;;7.60;3.70;;;;;;;24.85;48.52;99029.03;233160;1221;139158;-57
2022/07/05 03:15:38;;;;;;;4.90;3.20;;;;;;;24.84;48.69;99042.08;232052;1220;138559;-56
2022/07/05 03:20:41;;;;;;;9.40;3.20;;;;;;;24.75;48.94;99042.94;233312;1220;139197;-56
2022/07/05 03:25:44;;;;;;;6.10;3.20;;;;;;;24.63;49.28;99054.91;233347;1220;139025;-57
2022/07/05 03:30:48;;;;;;;171.60;143.50;;;;;;;24.49;49.76;99066.06;233363;1219;139465;-56
2022/07/05 03:35:51;;;;;;;26.10;20.90;;;;;;;24.43;50.19;99076.23;233439;1219;140539;-57
2022/07/05 03:40:56;;;;;;;4.70;4.20;;;;;;;24.36;50.80;99076.48;233105;1221;139145;-56
2022/07/05 03:46:00;;;;;;;5.90;3.30;;;;;;;24.22;51.39;99072.83;233266;1220;138635;-57
2022/07/05 03:51:04;;;;;;;47.20;35.20;;;;;;;24.12;51.79;99072.69;233270;1219;138788;-55
2022/07/05 03:56:08;;;;;;;9.20;6.20;;;;;;;24.16;52.75;99069.92;233553;1219;139446;-57
2022/07/05 04:01:11;;;;;;;5.20;3.90;;;;;;;24.17;52.89;99076.77;233478;1220;140090;-57
2022/07/05 04:06:14;;;;;;;6.80;4.40;;;;;;;24.08;53.37;99070.55;232627;1219;138384;-58
2022/07/05 04:11:18;;;;;;;7.00;4.80;;;;;;;24.13;53.87;99056.03;233303;1220;138484;-56
2022/07/05 04:16:23;;;;;;;45.20;38.20;;;;;;;24.19;54.02;99073.58;233369;1220;138455;-56
2022/07/05 04:21:27;;;;;;;7.80;5.60;;;;;;;24.17;54.04;99090.95;233314;1220;140422;-57
2022/07/05 04:26:31;;;;;;;145.20;101.50;;;;;;;24.12;53.89;99083.51;233294;1220;139237;-58
2022/07/05 04:31:35;;;;;;;9.40;4.80;;;;;;;24.11;53.82;99097.00;233332;1220;139662;-56
2022/07/05 04:36:40;;;;;;;6.10;3.10;;;;;;;23.99;53.46;99103.75;233341;1220;139267;-53
2022/07/05 04:41:43;;;;;;;4.90;2.70;;;;;;;23.79;53.22;99109.60;233426;1219;139518;-53
2022/07/05 04:46:47;;;;;;;7.20;3.80;;;;;;;23.56;53.43;99104.11;233416;1219;139254;-60
2022/07/05 04:51:50;;;;;;;5.40;3.30;;;;;;;23.41;54.09;99103.70;233312;1218;139781;-59
2022/07/05 04:56:54;;;;;;;12.10;4.10;;;;;;;23.32;54.43;99103.47;233316;1219;139720;-57
2022/07/05 05:01:57;;;;;;;13.30;4.50;;;;;;;23.25;54.87;99095.41;232789;1220;138783;-55
2022/07/05 05:07:00;;;;;;;11.50;4.00;;;;;;;23.16;55.22;99086.25;233277;1220;138634;-59
2022/07/05 05:12:03;;;;;;;8.60;3.90;;;;;;;23.07;55.62;99079.89;233493;1220;139364;-59
2022/07/05 05:17:06;;;;;;;7.30;3.50;;;;;;;22.98;55.89;99084.02;233365;1220;139522;-60
2022/07/05 05:22:10;;;;;;;7.30;4.50;;;;;;;22.92;56.16;99092.80;233278;1220;138303;-60
2022/07/05 05:27:13;;;;;;;5.30;3.70;;;;;;;22.87;56.44;99093.47;233264;1220;139239;-59
2022/07/05 05:32:16;;;;;;;7.80;3.80;;;;;;;22.86;56.51;99085.81;233354;1219;138736;-60
2022/07/05 05:37:19;;;;;;;18.40;5.50;;;;;;;22.86;56.71;99078.71;233361;1220;140075;-58
2022/07/05 05:42:22;;;;;;;22.10;5.30;;;;;;;23.00;57.01;99079.27;233464;1219;139778;-58
2022/07/05 05:47:25;;;;;;;13.80;4.80;;;;;;;23.06;56.91;99088.52;232942;1220;139890;-57
2022/07/05 05:52:28;;;;;;;7.30;4.30;;;;;;;23.04;56.95;99089.75;233146;1220;138726;-59
2022/07/05 05:57:33;;;;;;;16.10;4.70;;;;;;;23.01;57.03;99087.23;233428;1217;139232;-58
2022/07/05 06:02:36;;;;;;;24.00;5.30;;;;;;;22.98;57.12;99093.90;233350;1219;139060;-58
2022/07/05 06:07:45;;;;;;;12.80;4.40;;;;;;;22.89;57.12;99119.80;233158;1220;138502;-59
2022/07/05 06:12:50;;;;;;;6.20;4.20;;;;;;;22.80;57.21;99139.09;233383;1219;139839;-55
2022/07/05 06:17:53;;;;;;;9.70;4.30;;;;;;;22.79;57.65;99133.79;233356;1219;139417;-59
2022/07/05 06:22:58;;;;;;;4.40;3.70;;;;;;;22.80;57.72;99151.49;233325;1219;140608;-58
2022/07/05 06:28:04;;;;;;;7.90;5.00;;;;;;;22.75;57.67;99172.63;233005;1220;138443;-57
2022/07/05 06:33:07;;;;;;;6.40;4.80;;;;;;;22.69;57.72;99189.52;233321;1219;139627;-57
2022/07/05 06:38:10;;;;;;;9.90;4.70;;;;;;;22.66;57.93;99219.33;233046;1219;139569;-58
2022/07/05 06:43:13;;;;;;;11.30;5.30;;;;;;;22.66;58.22;99230.95;233399;1220;138832;-57
2022/07/05 06:48:36;;;;;;;8.60;6.00;;;;;;;22.60;58.41;99233.09;233438;1220;138619;-56
2022/07/05 06:53:39;;;;;;;11.60;5.70;;;;;;;22.58;58.38;99239.13;233370;1220;139610;-57
2022/07/05 06:58:43;;;;;;;9.60;6.70;;;;;;;22.57;58.44;99233.45;233456;1219;139674;-54
2022/07/05 07:03:46;;;;;;;10.30;6.20;;;;;;;22.54;58.81;99233.85;233010;1219;138690;-57
2022/07/05 07:09:18;;;;;;;10.20;6.10;;;;;;;22.51;59.15;99253.84;232618;1219;139122;-57
2022/07/05 07:14:21;;;;;;;9.70;6.20;;;;;;;22.43;59.36;99250.48;233001;1217;138931;-58
2022/07/05 07:19:24;;;;;;;9.30;6.30;;;;;;;22.40;59.58;99252.00;233360;1220;138290;-58
2022/07/05 07:24:27;;;;;;;12.20;6.00;;;;;;;22.41;59.80;99230.20;233501;1220;139915;-58
2022/07/05 07:29:31;;;;;;;9.90;6.20;;;;;;;22.48;59.92;99227.95;232696;1219;138735;-59
2022/07/05 07:34:36;;;;;;;8.00;5.70;;;;;;;22.48;60.20;99235.45;233371;1220;138434;-58
2022/07/05 07:39:40;;;;;;;10.90;6.50;;;;;;;22.48;60.26;99218.16;233348;1220;139078;-57
2022/07/05 07:44:43;;;;;;;9.00;5.90;;;;;;;22.50;60.46;99213.03;233346;1219;138961;-57
2022/07/05 07:49:46;;;;;;;13.10;6.50;;;;;;;22.47;60.54;99210.80;233392;1220;139365;-58
2022/07/05 07:54:49;;;;;;;9.20;5.80;;;;;;;22.54;60.66;99209.89;233419;1219;142074;-59
2022/07/05 07:59:52;;;;;;;7.20;5.60;;;;;;;22.59;60.54;99209.45;233489;1219;138294;-58
2022/07/05 08:04:58;;;;;;;6.40;5.30;;;;;;;22.66;60.69;99205.59;233314;1219;139089;-58
2022/07/05 08:10:07;;;;;;;8.00;6.00;;;;;;;22.69;60.81;99195.38;233389;1219;138749;-55
2022/07/05 08:15:11;;;;;;;7.10;5.70;;;;;;;22.73;60.93;99197.63;233399;1219;138815;-58
2022/07/05 08:25:35;;;;;;;6.80;4.90;;;;;;;22.73;60.67;99192.74;233325;1219;139150;-59
2022/07/05 08:30:38;;;;;;;7.70;5.30;;;;;;;22.73;60.40;99192.00;233178;1219;141064;-56
2022/07/05 08:35:41;;;;;;;400.70;343.00;;;;;;;22.76;60.74;99195.36;233358;1219;139166;-59
2022/07/05 08:40:49;;;;;;;12.30;10.60;;;;;;;22.82;60.89;99195.48;233264;1220;139877;-57
2022/07/05 08:45:56;;;;;;;8.60;6.30;;;;;;;22.81;60.69;99195.25;233121;1219;139586;-57
2022/07/05 08:51:00;;;;;;;8.30;6.20;;;;;;;22.81;60.57;99198.08;233230;1220;139032;-58
2022/07/05 08:56:04;;;;;;;6.40;5.40;;;;;;;22.84;60.56;99194.78;233195;1220;140125;-58
2022/07/05 09:01:08;;;;;;;7.70;5.50;;;;;;;22.83;60.42;99184.09;233139;1220;139141;-57
2022/07/05 09:06:15;;;;;;;6.50;5.40;;;;;;;22.82;60.50;99187.96;233312;1220;139521;-57
2022/07/05 09:11:24;;;;;;;6.50;5.40;;;;;;;22.79;60.52;99187.41;233176;1218;138386;-57
2022/07/05 09:16:27;;;;;;;9.00;5.80;;;;;;;22.70;60.56;99182.98;233109;1219;138833;-57
2022/07/05 09:21:30;;;;;;;6.90;5.50;;;;;;;22.66;60.87;99169.83;233136;1220;139250;-57
2022/07/05 09:26:39;;;;;;;7.20;5.40;;;;;;;22.68;61.16;99177.08;233264;1220;139161;-58
2022/07/05 09:31:49;;;;;;;9.50;5.90;;;;;;;22.72;61.22;99175.67;233310;1220;139027;-57
2022/07/05 09:37:01;;;;;;;8.40;6.40;;;;;;;22.77;61.00;99175.92;233268;1219;138868;-57
2022/07/05 09:42:23;;;;;;;7.40;6.30;;;;;;;22.78;60.84;99177.52;233446;1219;138273;-58
2022/07/05 09:47:28;;;;;;;8.00;6.30;;;;;;;22.79;60.91;99172.91;233160;1220;138367;-57
2022/07/05 09:52:36;;;;;;;8.80;6.50;;;;;;;22.78;60.94;99181.05;233017;1220;138671;-58
2022/07/05 09:57:41;;;;;;;9.60;6.30;;;;;;;22.79;60.82;99190.14;233070;1220;138884;-58
2022/07/05 10:02:51;;;;;;;;;;;;;;;22.77;60.62;99190.30;233246;1220;139787;-55
2022/07/05 10:07:56;;;;;;;63.20;49.40;;;;;;;22.83;60.96;99193.80;233081;1220;125194;-58
2022/07/05 10:13:01;;;;;;;;;;;;;;;22.85;61.05;99187.95;233670;1219;139233;-57
2022/07/05 10:18:12;;;;;;;9.80;7.70;;;;;;;22.87;61.29;99188.23;233615;1219;125449;-57
2022/07/05 10:23:17;;;;;;;10.00;7.00;;;;;;;22.88;61.22;99182.70;233375;1219;138315;-59
2022/07/05 10:28:21;;;;;;;9.80;6.30;;;;;;;22.94;61.15;99182.39;233179;1220;139014;-59
2022/07/05 10:33:27;;;;;;;11.20;6.60;;;;;;;22.97;61.32;99172.99;233249;1220;139282;-59
2022/07/05 10:38:30;;;;;;;7.70;6.70;;;;;;;23.01;61.40;99168.40;232814;1219;139268;-57
2022/07/05 10:43:34;;;;;;;14.20;8.10;;;;;;;23.06;61.36;99166.54;233287;1220;139815;-57
2022/07/05 10:48:37;;;;;;;10.00;8.00;;;;;;;23.12;61.39;99165.84;233435;1220;140734;-58
2022/07/05 10:53:40;;;;;;;9.30;7.90;;;;;;;23.26;61.80;99161.35;233452;1220;141933;-57
2022/07/05 10:58:47;;;;;;;9.60;7.40;;;;;;;23.35;61.78;99153.77;233406;1219;139256;-59
2022/07/05 11:04:22;;;;;;;8.90;7.90;;;;;;;23.38;61.65;99151.68;233305;1219;138899;-58
2022/07/05 11:09:25;;;;;;;10.30;8.80;;;;;;;23.46;61.55;99162.70;233279;1219;139481;-58
2022/07/05 11:14:37;;;;;;;13.60;8.50;;;;;;;23.54;61.61;99158.63;233209;1220;138971;-58
2022/07/05 11:20:00;;;;;;;9.40;7.60;;;;;;;23.59;61.37;99159.40;233418;1219;138851;-57
2022/07/05 11:25:05;;;;;;;8.30;7.40;;;;;;;23.65;61.36;99153.55;233315;1219;138581;-59
2022/07/05 11:30:22;;;;;;;63.80;47.70;;;;;;;23.68;61.43;99151.30;232874;1218;138582;-58
2022/07/05 11:35:33;;;;;;;9.40;7.70;;;;;;;23.69;61.63;99155.88;233163;1220;138888;-59
2022/07/05 12:02:43;;;;;;;10.60;8.90;;;;;;;24.24;60.83;99139.30;232356;1211;965066;-56
2022/07/05 12:07:51;;;;;;;9.20;7.10;;;;;;;24.18;60.86;99127.52;235001;1207;138303;-58
2022/07/05 12:12:54;;;;;;;10.40;7.20;;;;;;;24.17;60.93;99131.20;234866;1208;138784;-58
2022/07/05 12:18:03;;;;;;;8.50;7.20;;;;;;;24.09;61.17;99123.33;234762;1205;138334;-57
2022/07/05 12:23:06;;;;;;;7.70;6.30;;;;;;;24.07;61.43;99125.59;234924;1208;138166;-57
2022/07/05 12:28:10;;;;;;;8.70;5.90;;;;;;;23.95;61.28;99120.09;234954;1208;138463;-57
2022/07/05 12:33:13;;;;;;;5.50;4.90;;;;;;;23.85;61.50;99119.64;235065;1207;137725;-57
2022/07/05 12:38:20;;;;;;;5.20;3.80;;;;;;;23.90;61.79;99124.48;235076;1207;138517;-57
2022/07/05 12:43:23;;;;;;;4.60;3.60;;;;;;;24.00;61.74;99128.63;235011;1207;138673;-59
2022/07/05 12:48:37;;;;;;;5.30;3.60;;;;;;;24.07;61.66;99124.70;235192;1207;137984;-56
2022/07/05 12:59:10;;;;;;;10.90;8.00;;;;;;;23.95;61.60;99126.61;235005;1206;139193;-59
2022/07/05 13:04:15;;;;;;;4.50;3.20;;;;;;;23.92;61.61;99121.19;235093;1207;138773;-58
2022/07/05 13:09:37;;;;;;;115.20;86.70;;;;;;;23.96;61.68;99120.88;235066;1207;138729;-59
2022/07/05 13:14:41;;;;;;;5.20;4.20;;;;;;;23.97;61.71;99118.44;235102;1207;139141;-57
2022/07/05 13:19:46;;;;;;;6.60;3.10;;;;;;;23.99;61.71;99123.58;235132;1207;139949;-58
2022/07/05 13:24:49;;;;;;;5.00;3.40;;;;;;;23.91;61.47;99123.46;235223;1207;138613;-58
2022/07/05 13:29:54;;;;;;;4.40;3.10;;;;;;;23.80;61.36;99123.62;235098;1207;137952;-58
2022/07/05 13:34:57;;;;;;;6.60;2.80;;;;;;;23.74;61.65;99123.67;235117;1207;138631;-58
2022/07/05 13:40:00;;;;;;;3.90;3.10;;;;;;;23.81;61.93;99117.56;235094;1206;138251;-55
2022/07/05 13:45:04;;;;;;;4.10;2.90;;;;;;;23.92;61.83;99128.50;234816;1207;138336;-57
2022/07/05 13:55:29;;;;;;;5.50;2.50;;;;;;;23.99;61.68;99124.17;234907;1206;138484;-58
2022/07/05 14:00:32;;;;;;;3.70;2.30;;;;;;;24.01;61.52;99117.05;235209;1207;140047;-58
2022/07/05 14:05:36;;;;;;;3.50;2.60;;;;;;;24.04;61.26;99116.73;235175;1207;138977;-59
2022/07/05 14:10:39;;;;;;;4.60;2.90;;;;;;;24.06;61.31;99115.55;235114;1207;138543;-57
2022/07/05 14:15:42;;;;;;;4.40;2.60;;;;;;;24.08;61.21;99113.71;234928;1206;138092;-58
2022/07/05 14:20:46;;;;;;;3.40;3.10;;;;;;;24.03;61.07;99116.05;235105;1206;138473;-59
2022/07/05 14:25:49;;;;;;;3.70;2.60;;;;;;;23.88;60.93;99117.85;235033;1205;138815;-59
2022/07/05 14:30:52;;;;;;;5.90;2.90;;;;;;;23.75;61.08;99111.56;235273;1207;138672;-58
2022/07/05 14:35:55;;;;;;;4.10;2.70;;;;;;;23.72;61.17;99115.89;235102;1207;139124;-60
2022/07/05 14:40:58;;;;;;;3.30;2.90;;;;;;;23.78;61.55;99112.85;235092;1208;139133;-59
2022/07/05 14:46:02;;;;;;;6.30;4.20;;;;;;;23.79;61.57;99111.95;235174;1206;138628;-56
2022/07/05 14:51:05;;;;;;;4.00;3.20;;;;;;;23.81;61.52;99113.70;234983;1207;138307;-59
2022/07/05 14:56:08;;;;;;;5.50;3.10;;;;;;;23.80;61.33;99110.14;235079;1207;138742;-59
2022/07/05 15:01:11;;;;;;;6.20;2.80;;;;;;;23.76;61.18;99103.40;234999;1207;138571;-57
2022/07/05 15:06:14;;;;;;;4.10;2.80;;;;;;;23.71;60.95;99099.73;235194;1205;138316;-59
2022/07/05 15:11:17;;;;;;;4.30;3.00;;;;;;;23.68;61.00;99101.52;235044;1207;138120;-59
2022/07/05 15:16:20;;;;;;;5.30;3.30;;;;;;;23.60;60.76;99104.02;235129;1207;140307;-59
2022/07/05 15:21:23;;;;;;;4.20;3.10;;;;;;;23.50;60.78;99102.31;234709;1207;138298;-58
2022/07/05 15:26:28;;;;;;;4.30;3.50;;;;;;;23.47;60.84;99096.17;234843;1207;139313;-59
2022/07/05 15:31:34;;;;;;;4.30;3.20;;;;;;;23.43;60.85;99089.67;235024;1207;139845;-57
2022/07/05 15:36:37;;;;;;;5.40;3.20;;;;;;;23.40;60.92;99087.52;235142;1206;138125;-59
2022/07/05 15:41:40;;;;;;;7.30;3.80;;;;;;;23.31;61.11;99075.70;235030;1206;138404;-58
2022/07/05 15:52:05;;;;;;;6.10;3.70;;;;;;;23.34;61.27;99074.77;235057;1206;138921;-59
2022/07/05 15:57:08;;;;;;;15.20;10.80;;;;;;;23.36;61.30;99079.30;235076;1207;138613;-58
2022/07/05 16:02:11;;;;;;;8.80;3.80;;;;;;;23.40;61.55;99079.20;235022;1206;140404;-59
2022/07/05 16:07:14;;;;;;;11.20;3.40;;;;;;;23.40;61.38;99063.11;235762;1204;138084;-59
2022/07/05 16:12:17;;;;;;;4.80;2.80;;;;;;;23.38;61.36;99059.52;235681;1203;138693;-58
2022/07/05 16:17:20;;;;;;;5.50;3.10;;;;;;;23.33;61.04;99058.55;235989;1203;139386;-58
2022/07/05 16:22:23;;;;;;;7.90;3.10;;;;;;;23.28;61.11;99047.60;235793;1203;138712;-58
2022/07/05 16:27:27;;;;;;;12.90;3.70;;;;;;;23.24;61.04;99043.18;235782;1203;138460;-59
2022/07/05 16:32:30;;;;;;;5.80;3.00;;;;;;;23.21;60.99;99042.44;235736;1203;138675;-59
2022/07/05 16:37:33;;;;;;;14.80;10.30;;;;;;;23.17;61.16;99041.98;235805;1204;139385;-57
2022/07/05 16:42:36;;;;;;;3.70;3.20;;;;;;;23.16;61.19;99049.69;235786;1202;140007;-58
2022/07/05 16:47:39;;;;;;;10.90;4.00;;;;;;;23.13;61.26;99052.38;235701;1202;141283;-57
2022/07/05 16:52:42;;;;;;;7.10;3.60;;;;;;;23.33;62.06;99060.79;235763;1202;138457;-59
2022/07/05 16:57:45;;;;;;;6.20;3.10;;;;;;;23.68;62.42;99056.86;235745;1203;138409;-57
2022/07/05 17:02:48;;;;;;;6.10;3.20;;;;;;;24.06;62.15;99053.39;235603;1202;138348;-58
2022/07/05 17:07:58;;;;;;;5.40;2.70;;;;;;;24.30;61.49;99059.77;235721;1203;138247;-57
2022/07/05 17:13:06;;;;;;;4.00;2.90;;;;;;;24.43;60.85;99060.52;235666;1202;138955;-58
2022/07/05 17:18:09;;;;;;;9.70;2.90;;;;;;;24.49;60.55;99065.59;235868;1203;139270;-57
2022/07/05 17:23:12;;;;;;;4.90;2.90;;;;;;;24.54;60.21;99058.16;235647;1203;138371;-58
2022/07/05 17:28:15;;;;;;;9.60;3.30;;;;;;;24.54;60.06;99057.27;235547;1202;140115;-58
2022/07/05 17:33:18;;;;;;;8.90;3.20;;;;;;;24.54;59.66;99060.41;235533;1203;138647;-58
2022/07/05 17:38:21;;;;;;;5.50;3.10;;;;;;;24.50;59.53;99053.69;235662;1202;139123;-57
2022/07/05 17:43:26;;;;;;;11.80;3.30;;;;;;;24.48;59.69;99045.83;235768;1202;138581;-58
2022/07/05 17:48:30;;;;;;;7.10;3.30;;;;;;;24.47;59.66;99039.41;235412;1202;138743;-58
2022/07/05 17:53:33;;;;;;;5.50;3.40;;;;;;;24.45;59.78;99028.27;235787;1203;138059;-57
2022/07/05 17:58:36;;;;;;;6.00;3.80;;;;;;;24.42;59.74;99032.58;235848;1203;138863;-57
2022/07/05 18:03:39;;;;;;;7.50;3.90;;;;;;;24.31;59.38;99036.30;235800;1203;138722;-57
2022/07/05 18:08:43;;;;;;;6.80;3.60;;;;;;;24.19;59.62;99028.08;235763;1203;139189;-56
2022/07/05 18:13:46;;;;;;;5.80;3.30;;;;;;;24.13;59.68;99028.09;235772;1203;140141;-58
2022/07/05 18:18:49;;;;;;;43.30;35.60;;;;;;;24.16;60.23;99036.80;235863;1203;138746;-58
2022/07/05 18:23:52;;;;;;;10.60;5.60;;;;;;;24.18;59.65;99044.40;235702;1202;138828;-58
2022/07/05 18:28:55;;;;;;;7.30;4.40;;;;;;;23.92;59.09;99047.20;235660;1203;138487;-61
2022/07/05 18:33:58;;;;;;;7.80;4.50;;;;;;;23.57;59.06;99045.70;235711;1203;137990;-58
2022/07/05 18:39:02;;;;;;;6.60;4.40;;;;;;;23.23;59.25;99041.61;235800;1203;138677;-57
2022/07/05 18:44:05;;;;;;;7.40;4.30;;;;;;;22.97;59.69;99040.63;235538;1203;139301;-59
2022/07/05 18:49:08;;;;;;;11.20;5.00;;;;;;;22.82;60.09;99041.59;235733;1203;138659;-57
2022/07/05 18:54:11;;;;;;;10.10;4.90;;;;;;;22.71;60.45;99040.47;235810;1202;138825;-58
2022/07/05 18:59:14;;;;;;;8.20;5.20;;;;;;;22.59;60.59;99035.86;235682;1203;138373;-56
2022/07/05 19:04:17;;;;;;;6.90;4.40;;;;;;;22.49;60.96;99042.39;235683;1203;138223;-57
2022/07/05 19:14:42;;;;;;;7.90;4.10;;;;;;;22.29;61.37;99077.89;235422;1203;141912;-58
2022/07/05 19:19:45;;;;;;;7.60;4.40;;;;;;;22.24;61.34;99089.65;235298;1203;138587;-57
2022/07/05 19:24:50;;;;;;;10.50;4.90;;;;;;;22.20;61.68;99099.92;235658;1203;137957;-57
2022/07/05 19:29:53;;;;;;;6.40;5.10;;;;;;;22.08;61.80;99103.83;235804;1203;138509;-56
2022/07/05 19:34:57;;;;;;;183.30;135.60;;;;;;;22.07;62.23;99106.66;235699;1203;138664;-59
2022/07/05 19:40:00;;;;;;;10.60;8.70;;;;;;;22.14;62.65;99104.14;235740;1203;138446;-58
2022/07/05 19:45:04;;;;;;;8.40;5.20;;;;;;;22.19;62.51;99093.25;235683;1202;139595;-59
2022/07/05 19:50:07;;;;;;;7.40;5.60;;;;;;;22.16;62.62;99074.20;235753;1203;140004;-60
2022/07/05 19:55:11;;;;;;;9.70;6.10;;;;;;;22.21;62.78;99053.66;235807;1203;137970;-59
2022/07/05 20:00:14;;;;;;;8.00;5.50;;;;;;;22.22;63.03;99045.06;235911;1202;139023;-59
2022/07/05 20:05:18;;;;;;;6.30;5.60;;;;;;;22.20;62.97;99043.63;235611;1203;138906;-59
2022/07/05 20:10:21;;;;;;;9.30;5.10;;;;;;;22.12;63.00;99036.50;235757;1203;139686;-59
2022/07/05 20:15:24;;;;;;;256.70;217.60;;;;;;;22.19;63.36;99033.50;235801;1202;138356;-58
2022/07/05 20:20:27;;;;;;;18.40;15.40;;;;;;;22.25;63.67;99031.20;235815;1203;139081;-60
2022/07/05 20:25:30;;;;;;;8.50;6.10;;;;;;;22.24;63.33;99031.96;235695;1203;139000;-60
2022/07/05 20:30:34;;;;;;;8.90;4.50;;;;;;;22.09;63.19;99032.52;235919;1203;138322;-59
2022/07/05 20:35:37;;;;;;;5.60;4.40;;;;;;;21.99;63.12;99043.02;235475;1204;139131;-59
2022/07/05 20:40:40;;;;;;;8.30;5.10;;;;;;;21.95;63.53;99049.45;235674;1203;139077;-60
2022/07/05 20:45:43;;;;;;;8.90;5.10;;;;;;;21.92;63.56;99051.06;235722;1203;138486;-57
2022/07/05 20:50:46;;;;;;;5.30;4.80;;;;;;;21.84;63.61;99054.80;235845;1203;138751;-59
2022/07/05 20:55:52;;;;;;;5.20;4.50;;;;;;;21.79;63.81;99063.10;235657;1202;138698;-59
2022/07/05 21:00:55;;;;;;;8.70;4.80;;;;;;;21.78;63.89;99058.19;235888;1203;139623;-59
2022/07/05 21:05:58;;;;;;;327.20;281.10;;;;;;;21.75;63.95;99059.16;235783;1203;138828;-59
2022/07/05 21:11:01;;;;;;;9.20;8.10;;;;;;;21.69;63.97;99061.25;235790;1203;140728;-59
2022/07/05 21:16:04;;;;;;;9.60;5.90;;;;;;;21.66;64.13;99063.38;235664;1202;138285;-59
2022/07/05 21:21:08;;;;;;;6.50;5.20;;;;;;;21.63;64.29;99061.56;235685;1203;138915;-59
2022/07/05 21:26:11;;;;;;;9.10;5.00;;;;;;;21.67;64.31;99066.55;235645;1203;139525;-59
2022/07/05 21:31:15;;;;;;;7.10;5.20;;;;;;;21.69;64.29;99072.66;235482;1203;139157;-59
2022/07/05 21:36:18;;;;;;;5.90;4.70;;;;;;;21.74;64.62;99067.58;235601;1204;139029;-60
2022/07/05 21:41:21;;;;;;;5.40;4.20;;;;;;;21.83;64.47;99065.71;235644;1203;138455;-60
2022/07/05 21:46:24;;;;;;;6.10;4.50;;;;;;;21.81;64.38;99066.52;235699;1203;138923;-60
2022/07/05 21:51:29;;;;;;;6.30;3.80;;;;;;;21.78;64.17;99065.60;235678;1204;139129;-60
2022/07/05 21:56:32;;;;;;;4.60;4.00;;;;;;;21.76;64.35;99063.63;235491;1202;138821;-60
2022/07/05 22:06:59;;;;;;;5.10;4.00;;;;;;;21.65;64.25;99050.75;235775;1202;138081;-60
2022/07/05 22:12:03;;;;;;;3.80;3.40;;;;;;;21.53;64.23;99047.98;235832;1203;138279;-59
2022/07/05 22:17:06;;;;;;;5.10;3.90;;;;;;;21.48;64.25;99048.36;235956;1202;139530;-59
2022/07/05 22:22:09;;;;;;;5.90;3.20;;;;;;;21.42;64.02;99046.27;235822;1203;139235;-60
2022/07/05 22:27:12;;;;;;;5.00;3.20;;;;;;;21.32;64.02;99052.59;235795;1202;138735;-60
2022/07/05 22:32:15;;;;;;;5.60;3.00;;;;;;;21.19;64.04;99047.88;235727;1203;138293;-59
2022/07/05 22:37:18;;;;;;;5.30;3.20;;;;;;;21.12;64.04;99039.91;235706;1203;138636;-60
2022/07/05 22:42:21;;;;;;;4.20;3.60;;;;;;;21.10;64.33;99036.88;235919;1203;139859;-57
2022/07/05 22:47:24;;;;;;;3.30;3.00;;;;;;;21.06;64.18;99031.59;235771;1203;138802;-60
2022/07/05 22:52:27;;;;;;;4.00;2.90;;;;;;;20.97;64.33;99037.19;235842;1203;139618;-59
2022/07/05 22:57:30;;;;;;;3.20;2.80;;;;;;;20.95;64.24;99034.89;235942;1202;139453;-59
2022/07/05 23:02:33;;;;;;;3.20;2.90;;;;;;;20.92;64.32;99029.23;235849;1203;138683;-60
2022/07/05 23:07:36;;;;;;;3.10;2.80;;;;;;;20.88;64.34;99027.31;235753;1204;140779;-59
2022/07/05 23:12:39;;;;;;;6.30;3.30;;;;;;;20.84;64.48;99028.67;235954;1202;138848;-61
2022/07/05 23:17:42;;;;;;;5.10;3.00;;;;;;;20.79;64.62;99029.13;235775;1202;141194;-62
2022/07/05 23:22:45;;;;;;;3.70;3.00;;;;;;;20.78;64.72;99032.49;235714;1203;139026;-62
2022/07/05 23:27:48;;;;;;;5.30;3.20;;;;;;;20.81;64.87;99036.57;235992;1203;140033;-60
2022/07/05 23:32:51;;;;;;;4.50;3.20;;;;;;;20.84;64.91;99038.41;235869;1204;138414;-60
2022/07/05 23:37:53;;;;;;;4.60;2.80;;;;;;;20.88;65.00;99036.73;235780;1202;139506;-59
2022/07/05 23:42:56;;;;;;;3.10;2.50;;;;;;;20.86;64.80;99042.68;235940;1203;138393;-63
2022/07/05 23:48:00;;;;;;;2.60;2.40;;;;;;;20.87;64.85;99040.17;235860;1203;139534;-61
2022/07/05 23:53:02;;;;;;;3.90;2.60;;;;;;;20.94;64.81;99041.98;235770;1203;138158;-61
2022/07/05 23:58:05;;;;;;;3.20;2.50;;;;;;;20.98;64.90;99038.29;235854;1203;139212;-60
